createdAt,value
2023-03-27T00:01:13.287Z,99639.63
2023-03-27T00:03:41.491Z,99634.56
2023-03-27T00:06:11.421Z,99642.03
2023-03-27T00:08:38.903Z,99636.94
2023-03-27T00:11:08.258Z,99637.28
2023-03-27T00:13:36.637Z,99644.38
2023-03-27T00:16:27.712Z,99644.38
2023-03-27T00:18:55.573Z,99643.38
2023-03-27T00:21:23.126Z,99644.38
2023-03-27T00:23:50.561Z,99648.13
2023-03-27T00:26:17.968Z,99652.88
2023-03-27T00:28:45.160Z,99649.66
2023-03-27T00:31:14.259Z,99650.81
2023-03-27T00:33:42.512Z,99654.53
2023-03-27T00:36:10.348Z,99650.16
2023-03-27T00:38:39.878Z,99654.56
2023-03-27T00:41:08.463Z,99651.19
2023-03-27T00:43:36.808Z,99658.53
2023-03-27T00:46:04.303Z,99651.16
2023-03-27T00:48:32.943Z,99662.03
2023-03-27T00:51:00.360Z,99655.59
2023-03-27T00:53:28.854Z,99655.91
2023-03-27T00:55:58.778Z,99660.69
2023-03-27T00:58:32.218Z,99661.28
2023-03-27T01:00:59.636Z,99665.75
2023-03-27T01:03:29.876Z,99662.84
2023-03-27T01:05:58.136Z,99654.16
2023-03-27T01:08:27.363Z,99658.25
2023-03-27T01:10:58.132Z,99658.50
2023-03-27T01:13:55.423Z,99661.34
2023-03-27T01:16:35.601Z,99672.19
2023-03-27T01:19:06.086Z,99668.09
2023-03-27T01:21:52.144Z,99667.66
2023-03-27T01:24:26.720Z,99673.53
2023-03-27T01:27:12.598Z,99672.72
2023-03-27T01:29:51.267Z,99670.75
2023-03-27T01:32:20.387Z,99671.69
2023-03-27T01:35:06.309Z,99678.97
2023-03-27T01:37:33.799Z,99678.31
2023-03-27T01:40:19.827Z,99679.16
2023-03-27T01:42:50.333Z,99675.22
2023-03-27T01:45:23.784Z,99680.31
2023-03-27T01:47:56.833Z,99684.94
2023-03-27T01:50:29.945Z,99693.28
2023-03-27T01:53:23.539Z,99687.97
2023-03-27T01:55:54.406Z,99687.81
2023-03-27T01:58:28.235Z,99688.47
2023-03-27T02:00:58.997Z,99684.59
2023-03-27T02:03:40.241Z,99683.09
2023-03-27T02:06:16.565Z,99692.56
2023-03-27T02:09:05.386Z,99689.50
2023-03-27T02:11:36.596Z,99687.44
2023-03-27T02:14:17.448Z,99687.09
2023-03-27T02:16:48.798Z,99693.59
2023-03-27T02:19:20.816Z,99701.38
2023-03-27T02:21:51.121Z,99697.13
2023-03-27T02:24:19.013Z,99704.81
2023-03-27T02:26:50.612Z,99703.78
2023-03-27T02:29:17.987Z,99713.50
2023-03-27T02:31:45.630Z,99721.34
2023-03-27T02:34:33.981Z,99714.59
2023-03-27T02:37:17.616Z,99710.50
2023-03-27T02:40:39.851Z,99711.88
2023-03-27T02:43:46.003Z,99718.81
2023-03-27T02:46:28.401Z,99715.44
2023-03-27T02:48:59.835Z,99713.84
2023-03-27T02:51:30.259Z,99711.53
2023-03-27T02:54:01.244Z,99711.91
2023-03-27T02:56:34.970Z,99716.09
2023-03-27T02:59:04.734Z,99711.72
2023-03-27T03:01:37.489Z,99718.34
2023-03-27T03:04:28.566Z,99714.16
2023-03-27T03:07:06.526Z,99705.59
2023-03-27T03:09:34.626Z,99718.72
2023-03-27T03:12:09.042Z,99724.44
2023-03-27T03:14:44.241Z,99728.50
2023-03-27T03:17:12.679Z,99725.59
2023-03-27T03:19:39.932Z,99727.91
2023-03-27T03:22:08.610Z,99746.34
2023-03-27T03:24:37.619Z,99749.91
2023-03-27T03:27:05.871Z,99760.09
2023-03-27T03:29:44.354Z,99760.28
2023-03-27T03:32:16.953Z,99759.06
2023-03-27T03:34:47.213Z,99763.16
2023-03-27T03:37:16.013Z,99750.88
2023-03-27T03:39:43.207Z,99759.69
2023-03-27T03:42:22.795Z,99767.28
2023-03-27T03:44:52.713Z,99769.38
2023-03-27T03:47:22.022Z,99773.41
2023-03-27T03:49:49.936Z,99778.69
2023-03-27T03:52:17.410Z,99777.50
2023-03-27T03:54:46.740Z,99788.53
2023-03-27T03:57:14.453Z,99796.44
2023-03-27T03:59:43.153Z,99796.09
2023-03-27T04:02:37.240Z,99802.09
2023-03-27T04:05:09.755Z,99804.88
2023-03-27T04:07:40.219Z,99803.81
2023-03-27T04:10:26.687Z,99807.16
2023-03-27T04:12:54.477Z,99809.81
2023-03-27T04:15:28.497Z,99818.34
2023-03-27T04:17:58.941Z,99829.50
2023-03-27T04:20:28.975Z,99824.41
2023-03-27T04:23:02.324Z,99832.41
2023-03-27T04:25:30.729Z,99840.25
2023-03-27T04:27:59.088Z,99847.47
2023-03-27T04:30:37.221Z,99855.25
2023-03-27T04:33:23.220Z,99843.94
2023-03-27T04:36:06.429Z,99841.47
2023-03-27T04:38:59.828Z,99833.22
2023-03-27T04:41:29.824Z,99854.91
2023-03-27T04:43:57.566Z,99863.38
2023-03-27T04:46:24.821Z,99864.81
2023-03-27T04:48:59.210Z,99875.63
2023-03-27T04:51:46.984Z,99879.72
2023-03-27T04:54:15.250Z,99877.81
2023-03-27T04:56:46.609Z,99881.53
2023-03-27T04:59:15.732Z,99879.63
2023-03-27T05:01:46.972Z,99874.63
2023-03-27T05:04:32.118Z,99871.19
2023-03-27T05:07:12.337Z,99881.91
2023-03-27T05:09:39.855Z,99877.88
2023-03-27T05:12:08.825Z,99889.25
2023-03-27T05:14:42.414Z,99894.28
2023-03-27T05:17:26.011Z,99905.53
2023-03-27T05:19:54.401Z,99903.94
2023-03-27T05:22:21.847Z,99908.31
2023-03-27T05:24:57.006Z,99913.41
2023-03-27T05:27:27.965Z,99920.06
2023-03-27T05:29:57.814Z,99919.53
2023-03-27T05:32:25.219Z,99918.34
2023-03-27T05:35:04.366Z,99920.09
2023-03-27T05:37:38.621Z,99921.16
2023-03-27T05:40:39.494Z,99925.53
2023-03-27T05:43:08.356Z,99940.66
2023-03-27T05:45:37.293Z,99940.97
2023-03-27T05:48:04.817Z,99931.44
2023-03-27T05:50:37.459Z,99933.63
2023-03-27T05:53:12.156Z,99932.78
2023-03-27T05:56:10.602Z,99934.59
2023-03-27T05:58:49.084Z,99936.53
2023-03-27T06:01:16.382Z,99942.09
2023-03-27T06:03:43.713Z,99950.34
2023-03-27T06:06:18.083Z,99954.25
2023-03-27T06:08:46.548Z,99956.63
2023-03-27T06:11:15.369Z,99957.09
2023-03-27T06:13:46.758Z,99977.84
2023-03-27T06:16:22.336Z,99966.25
2023-03-27T06:18:59.090Z,99972.50
2023-03-27T06:21:27.470Z,99968.56
2023-03-27T06:23:59.378Z,99975.75
2023-03-27T06:26:28.432Z,99980.25
2023-03-27T06:29:02.002Z,99978.41
2023-03-27T06:31:40.170Z,99984.00
2023-03-27T06:34:15.184Z,99987.41
2023-03-27T06:37:14.860Z,99980.97
2023-03-27T06:39:44.242Z,99985.91
2023-03-27T06:42:11.829Z,99983.59
2023-03-27T06:44:56.124Z,99981.94
2023-03-27T06:48:16.875Z,100001.53
2023-03-27T06:50:51.101Z,100001.75
2023-03-27T06:53:27.474Z,99997.47
2023-03-27T06:55:56.081Z,99997.38
2023-03-27T06:58:24.706Z,99993.91
2023-03-27T07:00:52.239Z,99997.13
2023-03-27T07:03:21.505Z,100012.16
2023-03-27T07:06:01.326Z,100017.34
2023-03-27T07:08:36.748Z,100003.72
2023-03-27T07:13:37.412Z,100015.69
2023-03-27T07:16:07.704Z,100021.22
2023-03-27T07:18:36.250Z,100035.69
2023-03-27T07:21:04.174Z,100030.06
2023-03-27T07:23:31.678Z,100034.56
2023-03-27T07:26:04.347Z,100037.34
2023-03-27T07:28:51.901Z,100032.78
2023-03-27T07:31:35.172Z,100039.31
2023-03-27T07:34:08.873Z,100040.38
2023-03-27T07:36:54.794Z,100036.69
2023-03-27T07:39:22.996Z,100033.47
2023-03-27T07:41:50.378Z,100033.94
2023-03-27T07:44:49.955Z,100044.84
2023-03-27T07:47:17.687Z,100042.59
2023-03-27T07:49:46.196Z,100044.63
2023-03-27T07:52:17.027Z,100052.75
2023-03-27T07:54:53.788Z,100055.81
2023-03-27T07:57:23.617Z,100047.13
2023-03-27T07:59:52.682Z,100056.34
2023-03-27T08:02:29.806Z,100056.88
2023-03-27T08:04:57.230Z,100051.59
2023-03-27T08:07:25.957Z,100058.44
2023-03-27T08:09:57.707Z,100061.84
2023-03-27T08:12:25.358Z,100057.44
2023-03-27T08:14:58.576Z,100055.97
2023-03-27T08:17:28.643Z,100071.53
2023-03-27T08:19:56.715Z,100077.53
2023-03-27T08:22:25.640Z,100065.19
2023-03-27T08:25:11.595Z,100074.09
2023-03-27T08:27:40.609Z,100073.31
2023-03-27T08:30:09.377Z,100076.44
2023-03-27T08:32:39.932Z,100074.63
2023-03-27T08:35:09.966Z,100073.47
2023-03-27T08:37:37.209Z,100079.03
2023-03-27T08:40:28.407Z,100079.28
2023-03-27T08:43:27.354Z,100082.94
2023-03-27T08:46:01.994Z,100098.09
2023-03-27T08:48:53.721Z,100095.50
2023-03-27T08:51:31.632Z,100093.84
2023-03-27T08:54:04.454Z,100095.81
2023-03-27T08:56:33.119Z,100105.56
2023-03-27T08:59:00.823Z,100103.44
2023-03-27T09:01:29.595Z,100106.50
2023-03-27T09:04:19.970Z,100109.22
2023-03-27T09:06:55.918Z,100109.44
2023-03-27T09:09:23.373Z,100114.63
2023-03-27T09:12:01.142Z,100115.78
2023-03-27T09:14:36.359Z,100111.28
2023-03-27T09:17:27.312Z,100124.78
2023-03-27T09:20:22.088Z,100133.56
2023-03-27T09:22:58.052Z,100136.97
2023-03-27T09:25:47.475Z,100143.66
2023-03-27T09:28:51.992Z,100152.91
2023-03-27T09:31:30.196Z,100151.47
2023-03-27T09:34:02.056Z,100152.16
2023-03-27T09:36:29.506Z,100156.78
2023-03-27T09:39:04.514Z,100157.38
2023-03-27T09:41:35.166Z,100165.63
2023-03-27T09:44:09.866Z,100165.25
2023-03-27T09:46:44.031Z,100166.84
2023-03-27T09:49:12.810Z,100174.25
2023-03-27T09:51:47.552Z,100172.31
2023-03-27T09:54:50.386Z,100183.59
2023-03-27T09:57:18.245Z,100188.56
2023-03-27T09:59:59.795Z,100185.09
2023-03-27T10:02:29.094Z,100193.94
2023-03-27T10:05:25.257Z,100192.88
2023-03-27T10:07:56.001Z,100195.44
2023-03-27T10:10:55.260Z,100191.13
2023-03-27T10:13:37.583Z,100200.56
2023-03-27T10:16:07.877Z,100202.84
2023-03-27T10:18:51.080Z,100213.56
2023-03-27T10:21:39.895Z,100219.66
2023-03-27T10:24:17.424Z,100216.72
2023-03-27T10:27:07.452Z,100212.25
2023-03-27T10:29:40.442Z,100217.28
2023-03-27T10:32:12.478Z,100230.50
2023-03-27T10:35:00.336Z,100229.75
2023-03-27T10:38:14.386Z,100242.34
2023-03-27T10:41:04.197Z,100249.47
2023-03-27T10:43:41.272Z,100253.00
2023-03-27T10:46:11.744Z,100251.56
2023-03-27T10:48:48.968Z,100256.72
2023-03-27T10:51:39.481Z,100266.34
2023-03-27T10:54:33.646Z,100275.25
2023-03-27T10:57:02.803Z,100272.19
2023-03-27T10:59:41.614Z,100284.66
2023-03-27T11:02:46.157Z,100283.78
2023-03-27T11:05:19.636Z,100294.00
2023-03-27T11:07:50.268Z,100293.94
2023-03-27T11:10:25.029Z,100294.13
2023-03-27T11:12:57.644Z,100297.28
2023-03-27T11:15:32.871Z,100305.75
2023-03-27T11:18:22.296Z,100308.34
2023-03-27T11:21:01.593Z,100302.72
2023-03-27T11:23:52.230Z,100307.72
2023-03-27T11:26:25.309Z,100313.72
2023-03-27T11:28:59.626Z,100317.13
2023-03-27T11:31:40.626Z,100316.78
2023-03-27T11:34:29.432Z,100322.84
2023-03-27T11:37:23.846Z,100332.56
2023-03-27T11:39:57.111Z,100334.41
2023-03-27T11:42:26.673Z,100337.13
2023-03-27T11:44:54.628Z,100347.56
2023-03-27T11:48:12.791Z,100353.41
2023-03-27T11:50:56.693Z,100356.50
2023-03-27T11:53:43.906Z,100359.44
2023-03-27T11:56:23.771Z,100366.16
2023-03-27T11:59:17.145Z,100361.63
2023-03-27T12:02:01.171Z,100367.38
2023-03-27T12:04:44.031Z,100362.72
2023-03-27T12:07:34.108Z,100360.34
2023-03-27T12:10:28.250Z,100366.13
2023-03-27T12:13:03.066Z,100372.94
2023-03-27T12:15:50.475Z,100372.19
2023-03-27T12:18:18.345Z,100376.47
2023-03-27T12:20:53.658Z,100383.34
2023-03-27T12:23:41.966Z,100378.94
2023-03-27T12:26:56.501Z,100375.47
2023-03-27T12:30:11.420Z,100387.16
2023-03-27T12:32:47.519Z,100390.16
2023-03-27T12:35:21.837Z,100383.88
2023-03-27T12:37:56.693Z,100396.16
2023-03-27T12:40:41.260Z,100398.34
2023-03-27T12:43:22.109Z,100392.16
2023-03-27T12:46:19.537Z,100399.59
2023-03-27T12:48:50.115Z,100407.16
2023-03-27T12:51:19.965Z,100403.28
2023-03-27T12:53:56.486Z,100416.38
2023-03-27T12:56:27.381Z,100416.69
2023-03-27T12:58:55.319Z,100414.97
2023-03-27T13:01:45.383Z,100416.53
2023-03-27T13:04:31.495Z,100426.97
2023-03-27T13:07:19.731Z,100420.59
2023-03-27T13:10:07.171Z,100427.91
2023-03-27T13:12:40.408Z,100426.78
2023-03-27T13:15:08.637Z,100426.00
2023-03-27T13:18:05.357Z,100431.25
2023-03-27T13:20:44.871Z,100447.94
2023-03-27T13:23:32.987Z,100444.09
2023-03-27T13:26:19.213Z,100448.94
2023-03-27T13:28:49.693Z,100462.59
2023-03-27T13:31:37.504Z,100442.09
2023-03-27T13:34:38.583Z,100462.03
2023-03-27T13:37:09.409Z,100459.31
2023-03-27T13:39:46.111Z,100462.94
2023-03-27T13:42:24.655Z,100464.34
2023-03-27T13:44:58.769Z,100465.56
2023-03-27T13:47:28.346Z,100469.97
2023-03-27T13:50:23.392Z,100469.44
2023-03-27T13:53:09.714Z,100476.34
2023-03-27T13:56:20.055Z,100483.75
2023-03-27T13:59:28.118Z,100475.03
2023-03-27T14:01:57.127Z,100475.16
2023-03-27T14:04:54.186Z,100489.19
2023-03-27T14:07:27.793Z,100497.31
2023-03-27T14:10:18.898Z,100502.59
2023-03-27T14:13:19.358Z,100506.91
2023-03-27T14:16:10.779Z,100505.63
2023-03-27T14:19:02.113Z,100501.63
2023-03-27T14:21:38.520Z,100500.88
2023-03-27T14:24:18.770Z,100504.56
2023-03-27T14:26:52.620Z,100498.91
2023-03-27T14:29:21.387Z,100502.09
2023-03-27T14:31:51.403Z,100507.97
2023-03-27T14:34:35.228Z,100514.09
2023-03-27T14:37:36.274Z,100523.56
2023-03-27T14:40:27.348Z,100527.59
2023-03-27T14:47:28.972Z,100528.66
2023-03-27T14:50:01.680Z,100527.69
2023-03-27T14:52:41.459Z,100537.53
2023-03-27T14:55:27.018Z,100527.59
2023-03-27T14:58:18.600Z,100545.28
2023-03-27T15:00:51.168Z,100549.31
2023-03-27T15:03:21.918Z,100552.53
2023-03-27T15:05:57.579Z,100546.16
2023-03-27T15:08:33.809Z,100550.03
2023-03-27T15:11:38.479Z,100547.13
2023-03-27T15:14:16.020Z,100549.28
2023-03-27T15:16:47.515Z,100551.50
2023-03-27T15:19:19.622Z,100558.94
2023-03-27T15:21:49.402Z,100551.69
2023-03-27T15:24:36.861Z,100563.50
2023-03-27T15:27:04.795Z,100563.25
2023-03-27T15:29:39.298Z,100574.06
2023-03-27T15:32:11.290Z,100576.69
2023-03-27T15:34:47.494Z,100584.13
2023-03-27T15:37:25.108Z,100583.03
2023-03-27T15:40:15.607Z,100577.25
2023-03-27T15:42:47.519Z,100580.75
2023-03-27T15:45:23.023Z,100574.13
2023-03-27T15:48:02.985Z,100584.84
2023-03-27T15:50:30.502Z,100580.41
2023-03-27T15:52:58.804Z,100591.81
2023-03-27T15:55:47.830Z,100586.88
2023-03-27T15:58:23.610Z,100597.03
2023-03-27T16:00:52.800Z,100604.00
2023-03-27T16:03:24.101Z,100601.34
2023-03-27T16:05:53.137Z,100607.44
2023-03-27T16:08:47.879Z,100612.00
2023-03-27T16:11:32.124Z,100616.75
2023-03-27T16:13:59.495Z,100628.03
2023-03-27T16:16:28.165Z,100630.53
2023-03-27T16:18:58.791Z,100628.13
2023-03-27T16:21:27.720Z,100636.00
2023-03-27T16:23:55.447Z,100643.22
2023-03-27T16:26:24.932Z,100652.78
2023-03-27T16:28:54.229Z,100646.88
2023-03-27T16:31:21.549Z,100659.91
2023-03-27T16:33:48.849Z,100659.06
2023-03-27T16:36:18.668Z,100660.38
2023-03-27T16:38:46.671Z,100672.19
2023-03-27T16:41:14.737Z,100677.19
2023-03-27T16:43:42.605Z,100687.97
2023-03-27T16:46:23.593Z,100685.69
2023-03-27T16:48:51.925Z,100687.34
2023-03-27T16:51:20.067Z,100708.97
2023-03-27T16:53:47.398Z,100698.72
2023-03-27T16:56:14.640Z,100717.66
2023-03-27T16:58:42.993Z,100711.53
2023-03-27T17:01:10.524Z,100714.19
2023-03-27T17:03:37.972Z,100713.47
2023-03-27T17:06:06.513Z,100707.59
2023-03-27T17:08:34.286Z,100705.91
2023-03-27T17:11:02.903Z,100703.28
2023-03-27T17:13:30.148Z,100700.06
2023-03-27T17:15:57.709Z,100700.72
2023-03-27T17:18:25.689Z,100699.22
2023-03-27T17:20:52.982Z,100713.78
2023-03-27T17:23:20.233Z,100723.00
2023-03-27T17:25:47.444Z,100717.72
2023-03-27T17:28:15.041Z,100728.50
2023-03-27T17:30:56.677Z,100728.56
2023-03-27T17:33:29.222Z,100731.44
2023-03-27T17:35:59.520Z,100727.28
2023-03-27T17:38:27.593Z,100725.44
2023-03-27T17:40:54.774Z,100729.50
2023-03-27T17:43:22.189Z,100733.03
2023-03-27T17:45:50.138Z,100735.41
2023-03-27T17:48:17.431Z,100731.19
2023-03-27T17:50:52.074Z,100735.88
2023-03-27T17:53:27.423Z,100732.69
2023-03-27T17:55:55.246Z,100746.38
2023-03-27T17:58:22.831Z,100745.34
2023-03-27T18:00:50.357Z,100746.88
2023-03-27T18:03:17.700Z,100750.75
2023-03-27T18:05:45.470Z,100756.28
2023-03-27T18:08:13.807Z,100753.78
2023-03-27T18:10:45.538Z,100746.44
2023-03-27T18:13:13.179Z,100756.88
2023-03-27T18:15:40.909Z,100750.66
2023-03-27T18:18:08.564Z,100746.72
2023-03-27T18:20:36.179Z,100740.19
2023-03-27T18:23:03.475Z,100739.69
2023-03-27T18:25:30.892Z,100748.75
2023-03-27T18:27:58.197Z,100745.34
2023-03-27T18:30:25.440Z,100740.75
2023-03-27T18:32:52.852Z,100739.25
2023-03-27T18:35:20.737Z,100731.81
2023-03-27T18:37:48.136Z,100733.28
2023-03-27T18:40:16.731Z,100730.91
2023-03-27T18:42:44.165Z,100741.75
2023-03-27T18:45:12.718Z,100729.34
2023-03-27T18:47:41.590Z,100735.81
2023-03-27T18:50:09.448Z,100732.31
2023-03-27T18:52:36.783Z,100736.97
2023-03-27T18:55:05.307Z,100729.63
2023-03-27T18:57:34.368Z,100730.44
2023-03-27T19:00:02.057Z,100738.69
2023-03-27T19:02:29.508Z,100736.25
2023-03-27T19:04:56.824Z,100739.81
2023-03-27T19:07:24.208Z,100730.75
2023-03-27T19:09:51.486Z,100738.34
2023-03-27T19:12:20.750Z,100732.72
2023-03-27T19:15:19.427Z,100734.72
2023-03-27T19:17:53.495Z,100737.28
2023-03-27T19:20:57.074Z,100729.78
2023-03-27T19:23:45.318Z,100737.22
2023-03-27T19:26:15.515Z,100723.41
2023-03-27T19:28:44.265Z,100732.25
2023-03-27T19:31:12.602Z,100735.81
2023-03-27T19:33:40.383Z,100728.53
2023-03-27T19:36:07.966Z,100739.41
2023-03-27T19:38:37.341Z,100736.34
2023-03-27T19:41:07.949Z,100747.50
2023-03-27T19:43:35.455Z,100745.91
2023-03-27T19:46:15.011Z,100746.09
2023-03-27T19:48:44.234Z,100742.34
2023-03-27T19:51:19.657Z,100746.69
2023-03-27T19:53:50.690Z,100741.13
2023-03-27T19:56:21.236Z,100739.72
2023-03-27T19:58:48.573Z,100744.97
2023-03-27T20:01:15.878Z,100744.47
2023-03-27T20:03:45.207Z,100736.50
2023-03-27T20:06:18.956Z,100741.69
2023-03-27T20:08:48.243Z,100747.53
2023-03-27T20:11:16.705Z,100735.03
2023-03-27T20:13:55.335Z,100751.31
2023-03-27T20:16:25.115Z,100741.56
2023-03-27T20:19:04.590Z,100743.63
2023-03-27T20:21:33.946Z,100744.25
2023-03-27T20:24:01.206Z,100755.84
2023-03-27T20:26:39.057Z,100745.41
2023-03-27T20:29:16.276Z,100715.50
2023-03-27T20:31:45.504Z,100738.91
2023-03-27T20:34:13.008Z,100743.53
2023-03-27T20:36:40.236Z,100745.00
2023-03-27T20:39:33.558Z,100739.19
2023-03-27T20:42:00.942Z,100732.09
2023-03-27T20:44:36.845Z,100736.72
2023-03-27T20:47:12.151Z,100721.84
2023-03-27T20:49:43.722Z,100721.63
2023-03-27T20:52:13.071Z,100723.13
2023-03-27T20:54:40.689Z,100724.78
2023-03-27T20:57:11.377Z,100718.63
2023-03-27T20:59:38.944Z,100707.97
2023-03-27T21:02:06.643Z,100711.81
2023-03-27T21:04:33.992Z,100706.00
2023-03-27T21:07:01.213Z,100713.56
2023-03-27T21:09:28.587Z,100705.91
2023-03-27T21:11:56.182Z,100702.81
2023-03-27T21:14:23.561Z,100672.78
2023-03-27T21:16:50.978Z,100702.13
2023-03-27T21:19:20.779Z,100692.59
2023-03-27T21:21:48.188Z,100694.66
2023-03-27T21:24:16.012Z,100701.28
2023-03-27T21:26:43.544Z,100696.56
2023-03-27T21:29:11.548Z,100702.38
2023-03-27T21:31:39.428Z,100695.69
2023-03-27T21:34:07.049Z,100696.75
2023-03-27T21:36:34.912Z,100689.84
2023-03-27T21:39:02.181Z,100701.28
2023-03-27T21:41:29.517Z,100705.25
2023-03-27T21:43:56.702Z,100720.28
2023-03-27T21:46:24.078Z,100722.25
2023-03-27T21:48:51.435Z,100713.28
2023-03-27T21:51:19.041Z,100701.34
2023-03-27T21:53:46.321Z,100697.56
2023-03-27T21:56:13.758Z,100692.13
2023-03-27T21:58:41.084Z,100700.03
2023-03-27T22:01:08.504Z,100693.88
2023-03-27T22:03:35.854Z,100689.03
2023-03-27T22:06:11.536Z,100690.34
2023-03-27T22:08:40.649Z,100694.47
2023-03-27T22:11:07.932Z,100691.03
2023-03-27T22:13:36.321Z,100688.34
2023-03-27T22:16:08.144Z,100685.28
2023-03-27T22:18:35.483Z,100683.22
2023-03-27T22:21:11.373Z,100683.84
2023-03-27T22:23:39.572Z,100683.63
2023-03-27T22:26:07.073Z,100675.31
2023-03-27T22:28:34.390Z,100673.06
2023-03-27T22:31:01.701Z,100681.34
2023-03-27T22:33:29.027Z,100675.34
2023-03-27T22:35:56.286Z,100678.16
2023-03-27T22:38:23.672Z,100677.31
2023-03-27T22:40:50.837Z,100675.06
2023-03-27T22:43:22.909Z,100675.94
2023-03-27T22:45:50.965Z,100682.00
2023-03-27T22:48:18.733Z,100689.03
2023-03-27T22:50:53.469Z,100683.88
2023-03-27T22:53:20.732Z,100689.03
2023-03-27T22:55:51.364Z,100692.75
2023-03-27T22:58:19.109Z,100691.53
2023-03-27T23:00:47.595Z,100690.44
2023-03-27T23:03:14.890Z,100687.53
2023-03-27T23:05:42.701Z,100693.50
2023-03-27T23:08:10.647Z,100688.72
2023-03-27T23:10:37.843Z,100699.56
2023-03-27T23:13:05.175Z,100693.50
2023-03-27T23:15:32.387Z,100687.00
2023-03-27T23:17:59.808Z,100684.63
2023-03-27T23:20:27.372Z,100687.59
2023-03-27T23:22:54.968Z,100689.56
2023-03-27T23:25:22.194Z,100693.41
2023-03-27T23:27:49.582Z,100687.84
2023-03-27T23:30:17.195Z,100682.72
2023-03-27T23:32:44.432Z,100683.72
2023-03-27T23:35:12.219Z,100676.75
2023-03-27T23:37:39.672Z,100673.16
2023-03-27T23:40:07.265Z,100682.13
2023-03-27T23:42:34.493Z,100685.75
2023-03-27T23:45:02.050Z,100684.13
2023-03-27T23:47:29.375Z,100692.69
2023-03-27T23:49:56.570Z,100685.25
2023-03-27T23:52:24.124Z,100686.19
2023-03-27T23:54:51.326Z,100684.94
2023-03-27T23:57:18.761Z,100690.41
2023-03-27T23:59:46.214Z,100681.66
